sensor_id;sensor_type;location;lat;lon;timestamp;pressure;altitude;pressure_sealevel;temperature;humidity
40592;BME280;26301;42.832;23.918;2023-05-03T00:00:42;93536.34;;;11.11;48.40
40592;BME280;26301;42.832;23.918;2023-05-03T00:03:09;93555.41;;;11.21;43.46
40592;BME280;26301;42.832;23.918;2023-05-03T00:05:35;93533.06;;;11.04;41.05
40592;BME280;26301;42.832;23.918;2023-05-03T00:08:02;93542.06;;;11.13;36.31
40592;BME280;26301;42.832;23.918;2023-05-03T00:10:29;93525.53;;;11.14;35.29
40592;BME280;26301;42.832;23.918;2023-05-03T00:12:55;93560.47;;;11.28;35.24
40592;BME280;26301;42.832;23.918;2023-05-03T00:15:21;93558.44;;;11.30;34.48
40592;BME280;26301;42.832;23.918;2023-05-03T00:17:47;93537.75;;;11.30;34.48
40592;BME280;26301;42.832;23.918;2023-05-03T00:20:13;93547.31;;;11.30;34.26
40592;BME280;26301;42.832;23.918;2023-05-03T00:22:40;93523.28;;;11.17;34.53
40592;BME280;26301;42.832;23.918;2023-05-03T00:25:07;93522.59;;;11.22;35.38
40592;BME280;26301;42.832;23.918;2023-05-03T00:27:34;93515.38;;;11.24;36.29
40592;BME280;26301;42.832;23.918;2023-05-03T00:30:00;93486.78;;;11.02;36.86
40592;BME280;26301;42.832;23.918;2023-05-03T00:32:26;93538.41;;;11.37;37.23
40592;BME280;26301;42.832;23.918;2023-05-03T00:34:56;93515.63;;;11.23;39.00
40592;BME280;26301;42.832;23.918;2023-05-03T00:37:23;93539.41;;;11.36;39.53
40592;BME280;26301;42.832;23.918;2023-05-03T00:39:49;93520.84;;;11.11;39.35
40592;BME280;26301;42.832;23.918;2023-05-03T00:42:16;93515.13;;;10.97;39.89
40592;BME280;26301;42.832;23.918;2023-05-03T00:44:42;93505.94;;;10.89;38.95
40592;BME280;26301;42.832;23.918;2023-05-03T00:47:08;93511.44;;;10.93;40.52
40592;BME280;26301;42.832;23.918;2023-05-03T00:49:34;93540.81;;;11.15;40.53
40592;BME280;26301;42.832;23.918;2023-05-03T00:52:01;93502.78;;;10.87;39.56
40592;BME280;26301;42.832;23.918;2023-05-03T00:54:28;93529.72;;;11.03;41.06
40592;BME280;26301;42.832;23.918;2023-05-03T00:56:55;93504.34;;;10.88;37.01
40592;BME280;26301;42.832;23.918;2023-05-03T00:59:21;93517.25;;;10.88;38.08
40592;BME280;26301;42.832;23.918;2023-05-03T01:01:51;93532.56;;;10.90;37.73
40592;BME280;26301;42.832;23.918;2023-05-03T01:04:18;93543.78;;;11.07;37.89
40592;BME280;26301;42.832;23.918;2023-05-03T01:06:54;93502.22;;;10.85;37.97
40592;BME280;26301;42.832;23.918;2023-05-03T01:12:19;93525.09;;;11.05;37.75
40592;BME280;26301;42.832;23.918;2023-05-03T01:15:07;93513.78;;;10.94;39.92
40592;BME280;26301;42.832;23.918;2023-05-03T01:18:10;93546.44;;;11.12;39.16
40592;BME280;26301;42.832;23.918;2023-05-03T01:20:42;93500.09;;;10.82;39.38
40592;BME280;26301;42.832;23.918;2023-05-03T01:23:21;93506.00;;;10.94;39.84
40592;BME280;26301;42.832;23.918;2023-05-03T01:25:51;93484.00;;;10.92;39.94
40592;BME280;26301;42.832;23.918;2023-05-03T01:28:18;93474.13;;;10.89;40.36
40592;BME280;26301;42.832;23.918;2023-05-03T01:30:45;93486.13;;;10.95;40.24
40592;BME280;26301;42.832;23.918;2023-05-03T01:36:10;93514.63;;;11.12;40.67
40592;BME280;26301;42.832;23.918;2023-05-03T01:38:37;93489.41;;;10.90;40.68
40592;BME280;26301;42.832;23.918;2023-05-03T01:41:07;93508.38;;;11.08;41.25
40592;BME280;26301;42.832;23.918;2023-05-03T01:43:35;93518.75;;;11.25;39.96
40592;BME280;26301;42.832;23.918;2023-05-03T01:46:02;93517.53;;;11.27;40.70
40592;BME280;26301;42.832;23.918;2023-05-03T01:48:27;93478.34;;;11.07;41.20
40592;BME280;26301;42.832;23.918;2023-05-03T01:50:54;93459.94;;;11.03;42.70
40592;BME280;26301;42.832;23.918;2023-05-03T01:53:20;93471.78;;;11.16;45.93
40592;BME280;26301;42.832;23.918;2023-05-03T01:55:46;93492.53;;;11.33;47.73
40592;BME280;26301;42.832;23.918;2023-05-03T01:58:11;93474.59;;;11.26;47.17
40592;BME280;26301;42.832;23.918;2023-05-03T02:00:38;93475.22;;;11.33;49.19
40592;BME280;26301;42.832;23.918;2023-05-03T02:03:04;93477.28;;;11.31;49.18
40592;BME280;26301;42.832;23.918;2023-05-03T02:05:30;93464.56;;;11.30;48.68
40592;BME280;26301;42.832;23.918;2023-05-03T02:07:56;93442.88;;;11.19;48.23
40592;BME280;26301;42.832;23.918;2023-05-03T02:10:22;93438.78;;;11.06;48.75
40592;BME280;26301;42.832;23.918;2023-05-03T02:12:48;93475.38;;;11.27;49.70
40592;BME280;26301;42.832;23.918;2023-05-03T02:15:14;93464.25;;;11.26;51.81
40592;BME280;26301;42.832;23.918;2023-05-03T02:17:41;93435.66;;;11.04;52.00
40592;BME280;26301;42.832;23.918;2023-05-03T02:20:10;93434.53;;;11.00;52.53
40592;BME280;26301;42.832;23.918;2023-05-03T02:22:36;93433.66;;;10.94;51.12
40592;BME280;26301;42.832;23.918;2023-05-03T02:25:05;93439.66;;;10.83;48.58
40592;BME280;26301;42.832;23.918;2023-05-03T02:27:32;93459.75;;;10.93;50.50
40592;BME280;26301;42.832;23.918;2023-05-03T02:29:58;93426.09;;;10.64;50.91
40592;BME280;26301;42.832;23.918;2023-05-03T02:32:24;93429.38;;;10.48;51.70
40592;BME280;26301;42.832;23.918;2023-05-03T02:34:49;93441.06;;;10.39;53.16
40592;BME280;26301;42.832;23.918;2023-05-03T02:37:16;93466.31;;;10.48;52.28
40592;BME280;26301;42.832;23.918;2023-05-03T02:39:42;93464.41;;;10.44;55.00
40592;BME280;26301;42.832;23.918;2023-05-03T02:42:07;93473.88;;;10.38;55.17
40592;BME280;26301;42.832;23.918;2023-05-03T02:44:34;93439.94;;;10.11;55.89
40592;BME280;26301;42.832;23.918;2023-05-03T02:47:00;93469.25;;;10.28;57.36
40592;BME280;26301;42.832;23.918;2023-05-03T02:49:26;93475.63;;;10.26;55.88
40592;BME280;26301;42.832;23.918;2023-05-03T02:51:52;93476.53;;;10.08;55.37
40592;BME280;26301;42.832;23.918;2023-05-03T02:54:18;93475.72;;;10.07;54.07
40592;BME280;26301;42.832;23.918;2023-05-03T02:56:44;93474.13;;;9.95;52.92
40592;BME280;26301;42.832;23.918;2023-05-03T02:59:10;93432.63;;;9.84;48.14
40592;BME280;26301;42.832;23.918;2023-05-03T03:01:37;93432.50;;;9.91;47.02
40592;BME280;26301;42.832;23.918;2023-05-03T03:04:05;93455.97;;;10.13;48.40
40592;BME280;26301;42.832;23.918;2023-05-03T03:06:31;93465.75;;;10.23;47.03
40592;BME280;26301;42.832;23.918;2023-05-03T03:08:57;93438.91;;;10.12;47.42
40592;BME280;26301;42.832;23.918;2023-05-03T03:11:23;93446.88;;;10.11;46.82
40592;BME280;26301;42.832;23.918;2023-05-03T03:13:49;93450.47;;;10.10;50.25
40592;BME280;26301;42.832;23.918;2023-05-03T03:16:15;93469.25;;;10.28;49.35
40592;BME280;26301;42.832;23.918;2023-05-03T03:18:41;93432.53;;;10.15;54.27
40592;BME280;26301;42.832;23.918;2023-05-03T03:21:08;93469.16;;;10.35;53.95
40592;BME280;26301;42.832;23.918;2023-05-03T03:23:33;93437.00;;;10.19;54.23
40592;BME280;26301;42.832;23.918;2023-05-03T03:25:59;93465.75;;;10.35;54.84
40592;BME280;26301;42.832;23.918;2023-05-03T03:28:25;93463.09;;;10.29;55.30
40592;BME280;26301;42.832;23.918;2023-05-03T03:30:51;93453.22;;;10.26;56.35
40592;BME280;26301;42.832;23.918;2023-05-03T03:33:17;93460.50;;;10.29;55.84
40592;BME280;26301;42.832;23.918;2023-05-03T03:35:44;93474.53;;;10.34;56.37
40592;BME280;26301;42.832;23.918;2023-05-03T03:38:09;93440.28;;;10.15;57.12
40592;BME280;26301;42.832;23.918;2023-05-03T03:40:35;93476.88;;;10.23;57.59
40592;BME280;26301;42.832;23.918;2023-05-03T03:43:01;93469.31;;;10.22;58.09
40592;BME280;26301;42.832;23.918;2023-05-03T03:45:27;93478.66;;;10.23;57.46
40592;BME280;26301;42.832;23.918;2023-05-03T03:47:53;93454.50;;;9.94;58.77
40592;BME280;26301;42.832;23.918;2023-05-03T03:50:23;93477.75;;;10.05;56.89
40592;BME280;26301;42.832;23.918;2023-05-03T03:52:50;93487.06;;;10.06;60.92
40592;BME280;26301;42.832;23.918;2023-05-03T03:55:16;93466.59;;;9.81;58.73
40592;BME280;26301;42.832;23.918;2023-05-03T03:57:42;93488.16;;;9.87;56.97
40592;BME280;26301;42.832;23.918;2023-05-03T04:00:08;93480.94;;;9.77;61.31
40592;BME280;26301;42.832;23.918;2023-05-03T04:02:35;93446.94;;;9.57;58.84
40592;BME280;26301;42.832;23.918;2023-05-03T04:05:01;93472.75;;;9.69;57.60
40592;BME280;26301;42.832;23.918;2023-05-03T04:07:27;93502.06;;;9.98;60.01
40592;BME280;26301;42.832;23.918;2023-05-03T04:09:53;93476.34;;;9.79;61.71
40592;BME280;26301;42.832;23.918;2023-05-03T04:12:21;93484.53;;;9.76;60.24
40592;BME280;26301;42.832;23.918;2023-05-03T04:14:47;93503.53;;;9.94;60.51
40592;BME280;26301;42.832;23.918;2023-05-03T04:17:13;93511.03;;;9.95;63.56
40592;BME280;26301;42.832;23.918;2023-05-03T04:19:39;93505.09;;;9.95;64.27
40592;BME280;26301;42.832;23.918;2023-05-03T04:22:05;93495.00;;;9.93;62.40
40592;BME280;26301;42.832;23.918;2023-05-03T04:24:31;93491.75;;;9.98;62.52
40592;BME280;26301;42.832;23.918;2023-05-03T04:26:57;93529.72;;;10.21;63.20
40592;BME280;26301;42.832;23.918;2023-05-03T04:29:26;93533.09;;;10.21;64.13
40592;BME280;26301;42.832;23.918;2023-05-03T04:31:52;93511.41;;;10.11;65.26
40592;BME280;26301;42.832;23.918;2023-05-03T04:34:18;93544.97;;;10.22;63.12
40592;BME280;26301;42.832;23.918;2023-05-03T04:36:44;93525.78;;;10.18;63.85
40592;BME280;26301;42.832;23.918;2023-05-03T04:39:10;93540.16;;;10.14;63.57
40592;BME280;26301;42.832;23.918;2023-05-03T04:41:38;93543.50;;;10.15;64.65
40592;BME280;26301;42.832;23.918;2023-05-03T04:44:05;93549.00;;;10.18;65.29
40592;BME280;26301;42.832;23.918;2023-05-03T04:46:31;93547.19;;;10.07;64.29
40592;BME280;26301;42.832;23.918;2023-05-03T04:48:58;93564.84;;;10.22;65.66
40592;BME280;26301;42.832;23.918;2023-05-03T04:51:24;93568.44;;;10.21;65.61
40592;BME280;26301;42.832;23.918;2023-05-03T04:53:50;93566.97;;;10.25;66.47
40592;BME280;26301;42.832;23.918;2023-05-03T04:56:16;93540.81;;;10.10;64.84
40592;BME280;26301;42.832;23.918;2023-05-03T04:58:42;93562.59;;;10.25;64.10
40592;BME280;26301;42.832;23.918;2023-05-03T05:01:08;93566.91;;;10.32;63.56
40592;BME280;26301;42.832;23.918;2023-05-03T05:03:35;93554.06;;;10.25;64.91
40592;BME280;26301;42.832;23.918;2023-05-03T05:06:01;93575.38;;;10.50;59.10
40592;BME280;26301;42.832;23.918;2023-05-03T05:08:27;93572.09;;;10.55;56.52
40592;BME280;26301;42.832;23.918;2023-05-03T05:10:53;93540.63;;;10.35;55.54
40592;BME280;26301;42.832;23.918;2023-05-03T05:13:19;93568.16;;;10.52;53.51
40592;BME280;26301;42.832;23.918;2023-05-03T05:15:45;93557.38;;;10.56;50.80
40592;BME280;26301;42.832;23.918;2023-05-03T05:18:11;93590.66;;;10.75;50.20
40592;BME280;26301;42.832;23.918;2023-05-03T05:20:37;93585.59;;;10.81;49.72
40592;BME280;26301;42.832;23.918;2023-05-03T05:23:03;93592.78;;;10.79;50.63
40592;BME280;26301;42.832;23.918;2023-05-03T05:25:29;93594.69;;;10.71;55.79
40592;BME280;26301;42.832;23.918;2023-05-03T05:27:55;93595.94;;;10.69;55.48
40592;BME280;26301;42.832;23.918;2023-05-03T05:30:21;93605.81;;;10.72;52.36
40592;BME280;26301;42.832;23.918;2023-05-03T05:32:47;93588.97;;;10.81;50.47
40592;BME280;26301;42.832;23.918;2023-05-03T05:35:13;93590.19;;;10.79;53.29
40592;BME280;26301;42.832;23.918;2023-05-03T05:37:41;93570.53;;;10.66;53.83
40592;BME280;26301;42.832;23.918;2023-05-03T05:40:08;93596.72;;;10.81;54.16
40592;BME280;26301;42.832;23.918;2023-05-03T05:42:34;93601.63;;;10.83;54.17
40592;BME280;26301;42.832;23.918;2023-05-03T05:45:00;93586.69;;;10.61;54.95
40592;BME280;26301;42.832;23.918;2023-05-03T05:47:26;93588.16;;;10.57;55.57
40592;BME280;26301;42.832;23.918;2023-05-03T05:49:52;93566.25;;;10.48;55.28
40592;BME280;26301;42.832;23.918;2023-05-03T05:52:18;93601.09;;;10.69;56.24
40592;BME280;26301;42.832;23.918;2023-05-03T05:54:44;93604.91;;;10.66;57.21
40592;BME280;26301;42.832;23.918;2023-05-03T05:57:10;93602.66;;;10.82;56.62
40592;BME280;26301;42.832;23.918;2023-05-03T05:59:37;93599.63;;;10.85;57.26
40592;BME280;26301;42.832;23.918;2023-05-03T06:02:03;93580.44;;;10.69;57.83
40592;BME280;26301;42.832;23.918;2023-05-03T06:04:30;93588.28;;;10.74;57.34
40592;BME280;26301;42.832;23.918;2023-05-03T06:06:56;93571.97;;;10.62;57.48
40592;BME280;26301;42.832;23.918;2023-05-03T06:09:22;93571.09;;;10.56;57.66
40592;BME280;26301;42.832;23.918;2023-05-03T06:11:48;93565.47;;;10.47;58.92
40592;BME280;26301;42.832;23.918;2023-05-03T06:14:14;93595.34;;;10.67;58.79
40592;BME280;26301;42.832;23.918;2023-05-03T06:16:41;93592.19;;;10.76;59.86
40592;BME280;26301;42.832;23.918;2023-05-03T06:19:07;93578.06;;;10.67;60.06
40592;BME280;26301;42.832;23.918;2023-05-03T06:21:33;93575.34;;;10.86;61.28
40592;BME280;26301;42.832;23.918;2023-05-03T06:23:59;93566.03;;;10.73;62.34
40592;BME280;26301;42.832;23.918;2023-05-03T06:26:25;93568.16;;;10.88;60.16
40592;BME280;26301;42.832;23.918;2023-05-03T06:28:52;93587.72;;;11.07;59.22
40592;BME280;26301;42.832;23.918;2023-05-03T06:31:17;93584.00;;;11.03;59.67
40592;BME280;26301;42.832;23.918;2023-05-03T06:33:43;93554.22;;;10.89;60.13
40592;BME280;26301;42.832;23.918;2023-05-03T06:36:09;93561.88;;;10.95;60.05
40592;BME280;26301;42.832;23.918;2023-05-03T06:38:36;93579.50;;;11.10;60.55
40592;BME280;26301;42.832;23.918;2023-05-03T06:41:02;93576.13;;;11.10;62.71
40592;BME280;26301;42.832;23.918;2023-05-03T06:43:28;93582.19;;;11.15;63.02
40592;BME280;26301;42.832;23.918;2023-05-03T06:45:54;93597.91;;;11.26;62.23
40592;BME280;26301;42.832;23.918;2023-05-03T06:48:20;93591.50;;;11.28;62.01
40592;BME280;26301;42.832;23.918;2023-05-03T06:50:46;93587.00;;;11.35;62.85
40592;BME280;26301;42.832;23.918;2023-05-03T06:53:12;93579.59;;;11.15;62.22
40592;BME280;26301;42.832;23.918;2023-05-03T06:55:38;93574.88;;;11.24;63.30
40592;BME280;26301;42.832;23.918;2023-05-03T06:58:04;93550.50;;;11.08;62.90
40592;BME280;26301;42.832;23.918;2023-05-03T07:00:34;93540.50;;;11.12;62.08
40592;BME280;26301;42.832;23.918;2023-05-03T07:03:00;93579.91;;;11.31;60.58
40592;BME280;26301;42.832;23.918;2023-05-03T07:05:26;93548.25;;;11.12;61.73
40592;BME280;26301;42.832;23.918;2023-05-03T07:07:52;93543.25;;;11.22;62.21
40592;BME280;26301;42.832;23.918;2023-05-03T07:10:18;93538.53;;;11.31;62.22
40592;BME280;26301;42.832;23.918;2023-05-03T07:12:44;93532.72;;;11.24;62.91
40592;BME280;26301;42.832;23.918;2023-05-03T07:15:10;93560.06;;;11.48;63.23
40592;BME280;26301;42.832;23.918;2023-05-03T07:17:36;93537.72;;;11.42;65.42
40592;BME280;26301;42.832;23.918;2023-05-03T07:20:02;93548.91;;;11.59;64.32
40592;BME280;26301;42.832;23.918;2023-05-03T07:22:28;93549.88;;;11.70;61.95
40592;BME280;26301;42.832;23.918;2023-05-03T07:24:54;93541.78;;;11.66;62.53
40592;BME280;26301;42.832;23.918;2023-05-03T07:27:23;93545.25;;;11.72;61.90
40592;BME280;26301;42.832;23.918;2023-05-03T07:29:49;93516.31;;;11.58;62.14
40592;BME280;26301;42.832;23.918;2023-05-03T07:32:15;93530.28;;;11.74;59.85
40592;BME280;26301;42.832;23.918;2023-05-03T07:34:41;93542.03;;;11.82;61.31
40592;BME280;26301;42.832;23.918;2023-05-03T07:37:07;93525.25;;;11.67;61.96
40592;BME280;26301;42.832;23.918;2023-05-03T07:39:33;93507.25;;;11.61;63.68
40592;BME280;26301;42.832;23.918;2023-05-03T07:41:59;93544.94;;;11.97;64.28
40592;BME280;26301;42.832;23.918;2023-05-03T07:44:26;93547.69;;;12.07;66.00
40592;BME280;26301;42.832;23.918;2023-05-03T07:46:52;93517.09;;;12.04;66.52
40592;BME280;26301;42.832;23.918;2023-05-03T07:49:18;93515.38;;;12.10;66.46
40592;BME280;26301;42.832;23.918;2023-05-03T07:51:44;93537.50;;;12.34;63.70
40592;BME280;26301;42.832;23.918;2023-05-03T07:54:10;93511.44;;;12.24;62.43
40592;BME280;26301;42.832;23.918;2023-05-03T07:56:38;93545.13;;;12.58;62.84
40592;BME280;26301;42.832;23.918;2023-05-03T07:59:05;93561.53;;;12.64;59.10
40592;BME280;26301;42.832;23.918;2023-05-03T08:01:31;93558.06;;;12.75;59.37
40592;BME280;26301;42.832;23.918;2023-05-03T08:03:57;93526.91;;;12.70;60.07
40592;BME280;26301;42.832;23.918;2023-05-03T08:06:23;93561.50;;;12.97;58.10
40592;BME280;26301;42.832;23.918;2023-05-03T08:08:50;93533.19;;;12.96;57.83
40592;BME280;26301;42.832;23.918;2023-05-03T08:11:16;93558.13;;;13.19;59.23
40592;BME280;26301;42.832;23.918;2023-05-03T08:13:42;93555.16;;;13.27;58.10
40592;BME280;26301;42.832;23.918;2023-05-03T08:16:08;93532.03;;;13.25;60.13
40592;BME280;26301;42.832;23.918;2023-05-03T08:18:34;93544.69;;;13.44;57.88
40592;BME280;26301;42.832;23.918;2023-05-03T08:21:00;93521.13;;;13.45;58.46
40592;BME280;26301;42.832;23.918;2023-05-03T08:23:26;93521.50;;;13.59;57.92
40592;BME280;26301;42.832;23.918;2023-05-03T08:25:51;93536.56;;;13.84;57.35
40592;BME280;26301;42.832;23.918;2023-05-03T08:28:20;93527.88;;;14.01;57.49
40592;BME280;26301;42.832;23.918;2023-05-03T08:30:46;93498.97;;;13.92;57.80
40592;BME280;26301;42.832;23.918;2023-05-03T08:33:12;93536.22;;;14.35;59.50
40592;BME280;26301;42.832;23.918;2023-05-03T08:35:38;93509.09;;;14.53;58.38
40592;BME280;26301;42.832;23.918;2023-05-03T08:38:05;93538.13;;;14.82;57.75
40592;BME280;26301;42.832;23.918;2023-05-03T08:40:32;93534.69;;;15.14;58.18
40592;BME280;26301;42.832;23.918;2023-05-03T08:43:08;93529.31;;;15.36;54.83
40592;BME280;26301;42.832;23.918;2023-05-03T08:45:35;93534.06;;;15.54;54.24
40592;BME280;26301;42.832;23.918;2023-05-03T08:48:01;93507.56;;;15.72;54.91
40592;BME280;26301;42.832;23.918;2023-05-03T08:50:29;93516.72;;;15.95;51.74
40592;BME280;26301;42.832;23.918;2023-05-03T08:52:56;93534.69;;;15.87;52.18
40592;BME280;26301;42.832;23.918;2023-05-03T08:55:22;93524.81;;;15.99;51.13
40592;BME280;26301;42.832;23.918;2023-05-03T08:57:48;93510.75;;;15.95;52.45
40592;BME280;26301;42.832;23.918;2023-05-03T09:00:16;93514.38;;;16.09;50.38
40592;BME280;26301;42.832;23.918;2023-05-03T09:02:43;93528.22;;;16.15;51.51
40592;BME280;26301;42.832;23.918;2023-05-03T09:08:02;93534.47;;;16.39;50.05
40592;BME280;26301;42.832;23.918;2023-05-03T09:10:29;93522.75;;;16.42;49.00
40592;BME280;26301;42.832;23.918;2023-05-03T09:13:00;93497.72;;;16.36;48.96
40592;BME280;26301;42.832;23.918;2023-05-03T09:15:29;93525.06;;;16.74;48.36
40592;BME280;26301;42.832;23.918;2023-05-03T09:18:12;93530.72;;;17.17;49.59
40592;BME280;26301;42.832;23.918;2023-05-03T09:20:39;93528.00;;;17.48;50.67
40592;BME280;26301;42.832;23.918;2023-05-03T09:23:07;93499.78;;;17.55;47.81
40592;BME280;26301;42.832;23.918;2023-05-03T09:28:05;93508.03;;;18.17;49.06
40592;BME280;26301;42.832;23.918;2023-05-03T09:30:31;93489.03;;;18.40;47.32
40592;BME280;26301;42.832;23.918;2023-05-03T09:32:57;93472.06;;;18.67;48.42
40592;BME280;26301;42.832;23.918;2023-05-03T09:35:23;93481.28;;;18.88;44.00
40592;BME280;26301;42.832;23.918;2023-05-03T09:37:49;93473.50;;;18.83;44.90
40592;BME280;26301;42.832;23.918;2023-05-03T09:40:15;93487.09;;;19.09;45.69
40592;BME280;26301;42.832;23.918;2023-05-03T09:43:04;93463.47;;;19.14;45.65
40592;BME280;26301;42.832;23.918;2023-05-03T09:45:32;93493.19;;;19.48;45.92
40592;BME280;26301;42.832;23.918;2023-05-03T09:48:01;93490.91;;;19.84;44.38
40592;BME280;26301;42.832;23.918;2023-05-03T09:50:30;93470.59;;;19.95;43.50
40592;BME280;26301;42.832;23.918;2023-05-03T09:53:02;93458.25;;;19.95;42.38
40592;BME280;26301;42.832;23.918;2023-05-03T09:55:39;93486.66;;;20.07;42.33
40592;BME280;26301;42.832;23.918;2023-05-03T09:58:06;93470.06;;;20.12;46.34
40592;BME280;26301;42.832;23.918;2023-05-03T10:00:37;93463.28;;;20.10;41.75
40592;BME280;26301;42.832;23.918;2023-05-03T10:03:09;93485.41;;;20.18;44.47
40592;BME280;26301;42.832;23.918;2023-05-03T10:05:47;93492.56;;;20.31;43.00
40592;BME280;26301;42.832;23.918;2023-05-03T10:08:21;93480.16;;;20.37;48.11
40592;BME280;26301;42.832;23.918;2023-05-03T10:10:50;93493.06;;;20.52;42.44
40592;BME280;26301;42.832;23.918;2023-05-03T10:13:21;93480.19;;;20.70;44.23
40592;BME280;26301;42.832;23.918;2023-05-03T10:15:54;93456.25;;;20.71;43.92
40592;BME280;26301;42.832;23.918;2023-05-03T10:18:25;93479.31;;;21.02;42.79
40592;BME280;26301;42.832;23.918;2023-05-03T10:21:00;93474.75;;;21.21;41.48
40592;BME280;26301;42.832;23.918;2023-05-03T10:23:27;93477.28;;;21.13;41.18
40592;BME280;26301;42.832;23.918;2023-05-03T10:28:37;93466.66;;;20.90;40.64
40592;BME280;26301;42.832;23.918;2023-05-03T10:31:04;93482.22;;;20.73;40.43
40592;BME280;26301;42.832;23.918;2023-05-03T10:33:31;93473.47;;;20.77;41.89
40592;BME280;26301;42.832;23.918;2023-05-03T10:36:07;93479.63;;;20.54;41.10
40592;BME280;26301;42.832;23.918;2023-05-03T10:38:38;93455.59;;;20.14;42.72
40592;BME280;26301;42.832;23.918;2023-05-03T10:41:04;93464.28;;;19.96;43.05
40592;BME280;26301;42.832;23.918;2023-05-03T10:46:04;93483.88;;;19.79;43.76
40592;BME280;26301;42.832;23.918;2023-05-03T10:48:31;93481.28;;;19.55;44.12
40592;BME280;26301;42.832;23.918;2023-05-03T10:51:30;93492.31;;;19.33;45.47
40592;BME280;26301;42.832;23.918;2023-05-03T10:53:59;93490.81;;;19.03;45.00
40592;BME280;26301;42.832;23.918;2023-05-03T10:56:25;93481.28;;;18.88;45.66
40592;BME280;26301;42.832;23.918;2023-05-03T10:58:51;93488.41;;;18.83;46.74
40592;BME280;26301;42.832;23.918;2023-05-03T11:01:23;93466.03;;;18.42;46.31
40592;BME280;26301;42.832;23.918;2023-05-03T11:04:01;93485.50;;;18.55;46.70
40592;BME280;26301;42.832;23.918;2023-05-03T11:06:34;93485.00;;;18.53;47.27
40592;BME280;26301;42.832;23.918;2023-05-03T11:09:02;93470.94;;;18.49;47.26
40592;BME280;26301;42.832;23.918;2023-05-03T11:11:29;93481.84;;;18.56;45.85
40592;BME280;26301;42.832;23.918;2023-05-03T11:13:56;93465.47;;;18.45;45.88
40592;BME280;26301;42.832;23.918;2023-05-03T11:16:22;93461.16;;;18.31;46.47
40592;BME280;26301;42.832;23.918;2023-05-03T11:18:50;93479.97;;;18.33;47.33
40592;BME280;26301;42.832;23.918;2023-05-03T11:21:16;93468.59;;;18.13;47.95
40592;BME280;26301;42.832;23.918;2023-05-03T11:23:43;93428.97;;;17.62;47.92
40592;BME280;26301;42.832;23.918;2023-05-03T11:26:09;93477.75;;;18.16;48.22
40592;BME280;26301;42.832;23.918;2023-05-03T11:28:40;93474.34;;;18.15;48.55
40592;BME280;26301;42.832;23.918;2023-05-03T11:31:11;93479.28;;;18.17;47.96
40592;BME280;26301;42.832;23.918;2023-05-03T11:33:38;93475.97;;;18.11;48.63
40592;BME280;26301;42.832;23.918;2023-05-03T11:36:06;93481.00;;;17.97;48.78
40592;BME280;26301;42.832;23.918;2023-05-03T11:38:35;93468.59;;;17.69;49.16
40592;BME280;26301;42.832;23.918;2023-05-03T11:41:11;93461.81;;;17.73;50.25
40592;BME280;26301;42.832;23.918;2023-05-03T11:43:46;93480.66;;;17.65;51.23
40592;BME280;26301;42.832;23.918;2023-05-03T11:46:15;93487.66;;;17.79;50.72
40592;BME280;26301;42.832;23.918;2023-05-03T11:48:46;93453.09;;;17.43;49.41
40592;BME280;26301;42.832;23.918;2023-05-03T11:51:12;93484.09;;;17.60;49.12
40592;BME280;26301;42.832;23.918;2023-05-03T11:53:42;93462.53;;;17.39;49.54
40592;BME280;26301;42.832;23.918;2023-05-03T11:56:13;93464.00;;;17.50;50.62
40592;BME280;26301;42.832;23.918;2023-05-03T11:58:58;93490.56;;;17.68;50.13
40592;BME280;26301;42.832;23.918;2023-05-03T12:01:28;93482.84;;;17.47;50.04
40592;BME280;26301;42.832;23.918;2023-05-03T12:04:01;93491.22;;;17.44;49.92
40592;BME280;26301;42.832;23.918;2023-05-03T12:06:30;93495.19;;;17.31;50.41
40592;BME280;26301;42.832;23.918;2023-05-03T12:08:59;93497.88;;;17.11;51.36
40592;BME280;26301;42.832;23.918;2023-05-03T12:11:25;93491.41;;;16.93;50.79
40592;BME280;26301;42.832;23.918;2023-05-03T12:13:56;93492.69;;;16.90;51.29
40592;BME280;26301;42.832;23.918;2023-05-03T12:16:23;93494.25;;;16.97;52.07
40592;BME280;26301;42.832;23.918;2023-05-03T12:18:57;93494.56;;;16.80;52.30
40592;BME280;26301;42.832;23.918;2023-05-03T12:21:46;93492.16;;;16.94;51.49
40592;BME280;26301;42.832;23.918;2023-05-03T12:24:13;93482.25;;;16.96;52.45
40592;BME280;26301;42.832;23.918;2023-05-03T12:26:46;93487.22;;;16.92;51.91
40592;BME280;26301;42.832;23.918;2023-05-03T12:29:13;93413.81;;;16.29;53.08
40592;BME280;26301;42.832;23.918;2023-05-03T12:31:39;93487.78;;;16.74;54.16
40592;BME280;26301;42.832;23.918;2023-05-03T12:34:05;93465.34;;;16.57;52.42
40592;BME280;26301;42.832;23.918;2023-05-03T12:36:33;93476.06;;;16.56;51.85
40592;BME280;26301;42.832;23.918;2023-05-03T12:38:59;93486.75;;;16.54;52.07
40592;BME280;26301;42.832;23.918;2023-05-03T12:41:26;93455.00;;;16.16;52.63
40592;BME280;26301;42.832;23.918;2023-05-03T12:43:55;93477.66;;;16.46;54.53
40592;BME280;26301;42.832;23.918;2023-05-03T12:46:22;93475.03;;;16.52;53.38
40592;BME280;26301;42.832;23.918;2023-05-03T12:48:49;93439.84;;;16.44;52.99
40592;BME280;26301;42.832;23.918;2023-05-03T12:51:15;93461.19;;;16.56;53.60
40592;BME280;26301;42.832;23.918;2023-05-03T12:53:41;93427.59;;;16.24;53.30
40592;BME280;26301;42.832;23.918;2023-05-03T12:56:07;93443.75;;;16.41;54.97
40592;BME280;26301;42.832;23.918;2023-05-03T12:58:33;93451.31;;;16.48;53.58
40592;BME280;26301;42.832;23.918;2023-05-03T13:01:00;93458.38;;;16.37;53.90
40592;BME280;26301;42.832;23.918;2023-05-03T13:03:26;93446.63;;;16.45;55.39
40592;BME280;26301;42.832;23.918;2023-05-03T13:05:52;93419.28;;;16.22;54.41
40592;BME280;26301;42.832;23.918;2023-05-03T13:08:18;93448.22;;;16.31;54.33